Rejestracja

Wszystkie dane podawane są w czasie UTC za wyjątkiem miejsc gdzie jest jednoznacznie podane, że jest inaczej. Dane podawane w serwisie mają charakter informacyjny!!!
Informacje w sprawie dostępu do serwisu pod numerem tel. +48 261-828-138
Informacja dla żołnierzy i pracowników wojska: Prosimy o niezwłoczną zmianę adresu e-mail w profilu użytkownika na pocztę w domenie @ron.mil.pl

Aktualna Pogoda
 
Pogoda w Polsce
6°C Szczecin 3°C Suwałki 3°C Warszawa 4°C Poznan
5°C Opole 3°C Kraków 3°C Rzeszów
Więcej miast w Polsce

Pogoda w Europie
5°C Berlin 8°C Paryz 7°C Bruksela 2°C Oslo
4°C Praga 8°C Zagrzeb
Więcej miast w Europie

Metary wojskowe test
METAR EPCE 182230Z 23008KT 9999 OVC036 03/01 Q1011 RMK 034 083 8/8=
METAR EPDA 182230Z 23012KT 200V270 9999 -RA BKN067 06/01 Q1012 RMK 058 072 7/7=
METAR EPDE 182230Z AUTO 22006KT 9999 ///198 ///218 02/M00 Q1020 RMK 023 083 ///=
METAR EPIR 182200Z 23014KT 9999 SCT060 BKN080 04/M02 Q1016 RMK 041 065 5/3=
METAR EPKS 182200Z 23009KT 9999 SCT078 04/01 Q1018 RMK 043 077 4/4=
METAR EPLK 182230Z 21008KT 180V240 9999 NSC 03/M00 Q1019 RMK 027 082 2/2=
METAR EPLY 182200Z 21008KT 9999 NSC 03/M00 Q1018 RMK 029 079 3/3=
METAR EPMB 182200Z 24010KT 9999 NSC 05/M00 Q1013 RMK 045 071 0/0=
METAR EPMI 182200Z 24010KT 9999 BKN050 05/M01 Q1015 RMK 047 067 7/7=
METAR EPMM 182200Z 24010KT 220V280 9999 BKN060 02/M00 Q1018 RMK 019 087 7/7=
METAR EPOK 182200Z 25011KT CAVOK 05/00 Q1011 RMK 046 073 0/0=
METAR EPPR 182200Z 21008KT 9999 FEW060 04/M00 Q1013 RMK 042 072 2/2=
METAR EPPW 182200Z 25012KT 9999 NSC 04/M00 Q1017 RMK 041 073 7/7=
METAR EPSN 182200Z 24014KT 210V270 9999 BKN050 05/M00 Q1014 RMK 054 068 7/7=
METAR EPTM 182230Z AUTO 20004KT 01/M00 Q1019 RMK 014 088 ///=


 

Prawa autorskie©2007 SSH SZ RP. Wszelkie prawa zastrzeżone.